Maersk Kobe — 9HA3376 — position and weather

sailwx.info

Track history (hours):
 
Tides and Currents Weather Stations Pressure Air Temp Water Temp Dewpoint Dewpoint Depression Visibility Wind Speed Wind Dir Waves Ship Positions

Maersk Kobe

Last reported at 2018-Feb-22 17:05 UTC. Time now 2018-Feb-22 18:21 UTC.
Position N 29°03' W 094°25'.

Length 304 m; draft 11.2 m.

Type: Cargo ship. MMSI: 229521000.

Date/timePositionNaut miles runAvg speedWind from/ knotsBaromVisibWave heightAir tempDewpointWater temp
2018-Feb-22 17:05N 29°03' W 094°25'113.9
2018-Feb-22 17:00N 29°04' W 094°25'5 9.4
2018-Feb-22 16:27N 29°06' W 094°31'26 2.4
2018-Feb-22 05:29N 28°40' W 094°25'  
2018-Feb-20 01:14N 19°37' W 096°06'418.7
2018-Feb-20 01:00N 19°33' W 096°05'1018.6
2018-Feb-20 00:28N 19°24' W 095°60'818.1
2018-Feb-20 00:00N 19°16' W 095°57'815.6
2018-Feb-19 23:30N 19°12' W 096°04'3 6.9
2018-Feb-19 23:01N 19°12' W 096°08'0 0.6
2018-Feb-19 22:31N 19°13' W 096°08'0 0.0
2018-Feb-19 22:01N 19°13' W 096°08'0 0.0
2018-Feb-19 21:25N 19°13' W 096°08'0 0.0
2018-Feb-19 21:01N 19°13' W 096°08'0 0.0
2018-Feb-19 20:31N 19°13' W 096°08'0 0.0
2018-Feb-19 20:01N 19°13' W 096°08'0 0.0
2018-Feb-19 19:31N 19°13' W 096°08'0 0.0
2018-Feb-19 19:01N 19°13' W 096°08'0 0.0
2018-Feb-19 18:31N 19°13' W 096°08'0 0.0
2018-Feb-19 18:01N 19°13' W 096°08'0 0.0
2018-Feb-19 17:31N 19°13' W 096°08'0 0.0
2018-Feb-19 17:01N 19°13' W 096°08'0 0.0
2018-Feb-19 16:31N 19°13' W 096°08'0 0.0
2018-Feb-19 15:58N 19°13' W 096°08'0 0.0
2018-Feb-19 15:31N 19°13' W 096°08'0 0.0
2018-Feb-19 15:01N 19°13' W 096°08'0 0.0
2018-Feb-19 14:31N 19°13' W 096°08'  
2018-Feb-16 21:18N 25°35' W 079°36'717.7
2018-Feb-16 20:55N 25°42' W 079°37'717.6
2018-Feb-16 20:30N 25°49' W 079°38'917.3
2018-Feb-16 20:00N 25°58' W 079°40'917.9
2018-Feb-16 19:30N 26°01' W 079°50'918.2
2018-Feb-16 19:00N 26°04' W 079°59'612.0
2018-Feb-16 18:29N 26°06' W 080°06'1 2.7
2018-Feb-16 18:00N 26°05' W 080°07'1 1.1
2018-Feb-16 17:30N 26°04' W 080°07'0 0.0
2018-Feb-16 17:00N 26°04' W 080°07'0 0.0
2018-Feb-16 16:30N 26°04' W 080°07'0 0.0
2018-Feb-16 16:00N 26°04' W 080°07'0 0.0
2018-Feb-16 15:30N 26°04' W 080°07'0 0.0
2018-Feb-16 15:00N 26°04' W 080°07'0 0.0
2018-Feb-16 14:30N 26°04' W 080°07'0 0.0
2018-Feb-16 14:00N 26°04' W 080°07'0 0.0
2018-Feb-16 13:30N 26°04' W 080°07'0 0.0
2018-Feb-16 12:57N 26°04' W 080°07'0 0.0
2018-Feb-16 12:30N 26°04' W 080°07'0 0.0
2018-Feb-16 12:00N 26°04' W 080°07'0 0.0
2018-Feb-16 11:30N 26°04' W 080°07'0 0.0
2018-Feb-16 11:00N 26°04' W 080°07'0 0.0
2018-Feb-16 10:30N 26°04' W 080°07'0 0.0
2018-Feb-16 10:00N 26°04' W 080°07'0 0.0
2018-Feb-16 09:30N 26°04' W 080°07'0 0.0
2018-Feb-16 09:00N 26°04' W 080°07'0 0.0
2018-Feb-16 08:30N 26°04' W 080°07'0 0.0
2018-Feb-16 08:00N 26°04' W 080°07'0 0.0
2018-Feb-16 07:30N 26°04' W 080°07'0 0.0
2018-Feb-16 07:00N 26°04' W 080°07'0 0.0
2018-Feb-16 06:30N 26°04' W 080°07'0 0.0
2018-Feb-16 06:00N 26°04' W 080°07'0 0.0
2018-Feb-16 05:30N 26°04' W 080°07'0 0.0
2018-Feb-16 05:00N 26°04' W 080°07'0 0.0
2018-Feb-16 04:30N 26°04' W 080°07'0 0.0
2018-Feb-16 04:00N 26°04' W 080°07'0 0.0
2018-Feb-16 03:30N 26°04' W 080°07'0 0.0
2018-Feb-16 03:00N 26°04' W 080°07'0 0.0
2018-Feb-16 02:30N 26°04' W 080°07'0 0.0
2018-Feb-16 02:00N 26°04' W 080°07'0 0.0
2018-Feb-16 01:30N 26°04' W 080°07'0 0.0
2018-Feb-16 01:00N 26°04' W 080°07'0 0.0
2018-Feb-16 00:30N 26°04' W 080°07'0 0.0
2018-Feb-15 23:57N 26°04' W 080°07'0 0.0
2018-Feb-15 23:30N 26°04' W 080°07'0 0.0
2018-Feb-15 23:00N 26°04' W 080°07'0 0.0
2018-Feb-15 22:30N 26°04' W 080°07'1 2.4
2018-Feb-15 22:01N 26°05' W 080°07'3 6.1
2018-Feb-15 21:31N 26°06' W 080°04'2 5.0
2018-Feb-15 21:01N 26°08' W 080°02'1 1.2
2018-Feb-15 20:31N 26°07' W 080°01'0 0.8
2018-Feb-15 20:00N 26°07' W 080°01'3 5.4
2018-Feb-15 19:31N 26°08' W 079°58'3 6.8
2018-Feb-15 19:00N 26°09' W 079°54'510.5
2018-Feb-15 18:31N 26°10' W 079°49'5 9.9
2018-Feb-15 17:59N 26°12' W 079°43'1 1.7
2018-Feb-15 17:31N 26°12' W 079°44'1 2.4
2018-Feb-15 17:00N 26°10' W 079°43'1 2.4
2018-Feb-15 16:30N 26°09' W 079°43'1 2.2
2018-Feb-15 16:01N 26°08' W 079°43'1 2.4
2018-Feb-15 15:31N 26°07' W 079°43'1 2.6
2018-Feb-15 15:00N 26°08' W 079°43'4 8.5
2018-Feb-15 14:30N 26°11' W 079°40'5 9.4
2018-Feb-15 13:59N 26°14' W 079°35'5 9.8
2018-Feb-15 13:29N 26°15' W 079°30'5 9.4
2018-Feb-15 13:00N 26°17' W 079°25'5 9.6
2018-Feb-15 12:29N 26°19' W 079°20'  
Track history (hours):
 
Tides and Currents Weather Stations Pressure Air Temp Water Temp Dewpoint Dewpoint Depression Visibility Wind Speed Wind Dir Waves Ship Positions

Maersk Kobe

Last reported at 2018-Feb-22 17:05 UTC. Time now 2018-Feb-22 18:21 UTC.
Position N 29°03' W 094°25'.

Length 304 m; draft 11.2 m.

Type: Cargo ship. MMSI: 229521000.

Date/timePositionNaut miles runAvg speedWind from/ knotsBaromVisibWave heightAir tempDewpointWater temp
2018-Feb-22 17:05N 29°03' W 094°25'113.9
2018-Feb-22 17:00N 29°04' W 094°25'5 9.4
2018-Feb-22 16:27N 29°06' W 094°31'26 2.4
2018-Feb-22 05:29N 28°40' W 094°25'  
2018-Feb-20 01:14N 19°37' W 096°06'418.7
2018-Feb-20 01:00N 19°33' W 096°05'1018.6
2018-Feb-20 00:28N 19°24' W 095°60'818.1
2018-Feb-20 00:00N 19°16' W 095°57'815.6
2018-Feb-19 23:30N 19°12' W 096°04'3 6.9
2018-Feb-19 23:01N 19°12' W 096°08'0 0.6
2018-Feb-19 22:31N 19°13' W 096°08'0 0.0
2018-Feb-19 22:01N 19°13' W 096°08'0 0.0
2018-Feb-19 21:25N 19°13' W 096°08'0 0.0
2018-Feb-19 21:01N 19°13' W 096°08'0 0.0
2018-Feb-19 20:31N 19°13' W 096°08'0 0.0
2018-Feb-19 20:01N 19°13' W 096°08'0 0.0
2018-Feb-19 19:31N 19°13' W 096°08'0 0.0
2018-Feb-19 19:01N 19°13' W 096°08'0 0.0
2018-Feb-19 18:31N 19°13' W 096°08'0 0.0
2018-Feb-19 18:01N 19°13' W 096°08'0 0.0
2018-Feb-19 17:31N 19°13' W 096°08'0 0.0
2018-Feb-19 17:01N 19°13' W 096°08'0 0.0
2018-Feb-19 16:31N 19°13' W 096°08'0 0.0
2018-Feb-19 15:58N 19°13' W 096°08'0 0.0
2018-Feb-19 15:31N 19°13' W 096°08'0 0.0
2018-Feb-19 15:01N 19°13' W 096°08'0 0.0
2018-Feb-19 14:31N 19°13' W 096°08'  
2018-Feb-16 21:18N 25°35' W 079°36'717.7
2018-Feb-16 20:55N 25°42' W 079°37'717.6
2018-Feb-16 20:30N 25°49' W 079°38'917.3
2018-Feb-16 20:00N 25°58' W 079°40'917.9
2018-Feb-16 19:30N 26°01' W 079°50'918.2
2018-Feb-16 19:00N 26°04' W 079°59'612.0
2018-Feb-16 18:29N 26°06' W 080°06'1 2.7
2018-Feb-16 18:00N 26°05' W 080°07'1 1.1
2018-Feb-16 17:30N 26°04' W 080°07'0 0.0
2018-Feb-16 17:00N 26°04' W 080°07'0 0.0
2018-Feb-16 16:30N 26°04' W 080°07'0 0.0
2018-Feb-16 16:00N 26°04' W 080°07'0 0.0
2018-Feb-16 15:30N 26°04' W 080°07'0 0.0
2018-Feb-16 15:00N 26°04' W 080°07'0 0.0
2018-Feb-16 14:30N 26°04' W 080°07'0 0.0
2018-Feb-16 14:00N 26°04' W 080°07'0 0.0
2018-Feb-16 13:30N 26°04' W 080°07'0 0.0
2018-Feb-16 12:57N 26°04' W 080°07'0 0.0
2018-Feb-16 12:30N 26°04' W 080°07'0 0.0
2018-Feb-16 12:00N 26°04' W 080°07'0 0.0
2018-Feb-16 11:30N 26°04' W 080°07'0 0.0
2018-Feb-16 11:00N 26°04' W 080°07'0 0.0
2018-Feb-16 10:30N 26°04' W 080°07'0 0.0
2018-Feb-16 10:00N 26°04' W 080°07'0 0.0
2018-Feb-16 09:30N 26°04' W 080°07'0 0.0
2018-Feb-16 09:00N 26°04' W 080°07'0 0.0
2018-Feb-16 08:30N 26°04' W 080°07'0 0.0
2018-Feb-16 08:00N 26°04' W 080°07'0 0.0
2018-Feb-16 07:30N 26°04' W 080°07'0 0.0
2018-Feb-16 07:00N 26°04' W 080°07'0 0.0
2018-Feb-16 06:30N 26°04' W 080°07'0 0.0
2018-Feb-16 06:00N 26°04' W 080°07'0 0.0
2018-Feb-16 05:30N 26°04' W 080°07'0 0.0
2018-Feb-16 05:00N 26°04' W 080°07'0 0.0
2018-Feb-16 04:30N 26°04' W 080°07'0 0.0
2018-Feb-16 04:00N 26°04' W 080°07'0 0.0
2018-Feb-16 03:30N 26°04' W 080°07'0 0.0
2018-Feb-16 03:00N 26°04' W 080°07'0 0.0
2018-Feb-16 02:30N 26°04' W 080°07'0 0.0
2018-Feb-16 02:00N 26°04' W 080°07'0 0.0
2018-Feb-16 01:30N 26°04' W 080°07'0 0.0
2018-Feb-16 01:00N 26°04' W 080°07'0 0.0
2018-Feb-16 00:30N 26°04' W 080°07'0 0.0
2018-Feb-15 23:57N 26°04' W 080°07'0 0.0
2018-Feb-15 23:30N 26°04' W 080°07'0 0.0
2018-Feb-15 23:00N 26°04' W 080°07'0 0.0
2018-Feb-15 22:30N 26°04' W 080°07'1 2.4
2018-Feb-15 22:01N 26°05' W 080°07'3 6.1
2018-Feb-15 21:31N 26°06' W 080°04'2 5.0
2018-Feb-15 21:01N 26°08' W 080°02'1 1.2
2018-Feb-15 20:31N 26°07' W 080°01'0 0.8
2018-Feb-15 20:00N 26°07' W 080°01'3 5.4
2018-Feb-15 19:31N 26°08' W 079°58'3 6.8
2018-Feb-15 19:00N 26°09' W 079°54'510.5
2018-Feb-15 18:31N 26°10' W 079°49'5 9.9
2018-Feb-15 17:59N 26°12' W 079°43'1 1.7
2018-Feb-15 17:31N 26°12' W 079°44'1 2.4
2018-Feb-15 17:00N 26°10' W 079°43'1 2.4
2018-Feb-15 16:30N 26°09' W 079°43'1 2.2
2018-Feb-15 16:01N 26°08' W 079°43'1 2.4
2018-Feb-15 15:31N 26°07' W 079°43'1 2.6
2018-Feb-15 15:00N 26°08' W 079°43'4 8.5
2018-Feb-15 14:30N 26°11' W 079°40'5 9.4
2018-Feb-15 13:59N 26°14' W 079°35'5 9.8
2018-Feb-15 13:29N 26°15' W 079°30'5 9.4
2018-Feb-15 13:00N 26°17' W 079°25'5 9.6
2018-Feb-15 12:29N 26°19' W 079°20'  

Dump ship's entire track history